Time;durP1;ratioP1;P1;durP2;ratioP2;P2;SDS_P1;SDS_P2;PMS_P1;PMS_P2;Temp;Humidity;BMP_temperature;BMP_pressure;BME280_temperature;BME280_humidity;BME280_pressure;Samples;Min_cycle;Max_cycle;Signal;HPM_P1;HPM_P2
2022/06/20 00:02:23;;;;;;;4.27;3.20;;;;;;;25.04;51.12;98048.28;5091304;28;43369;-72
2022/06/20 00:04:54;;;;;;;5.30;3.20;;;;;;;25.01;50.94;98042.44;5089840;28;42989;-72
2022/06/20 00:07:22;;;;;;;4.27;3.00;;;;;;;24.98;51.19;98042.84;5090194;28;40094;-72
2022/06/20 00:09:50;;;;;;;4.90;3.27;;;;;;;24.93;50.85;98034.53;5072890;28;40792;-72
2022/06/20 00:12:19;;;;;;;5.73;3.17;;;;;;;24.88;51.23;98031.56;5090100;28;42118;-72
2022/06/20 00:14:50;;;;;;;4.23;3.33;;;;;;;24.84;51.51;98038.47;5090784;28;42341;-72
2022/06/20 00:17:20;;;;;;;5.13;3.17;;;;;;;24.80;51.68;98029.06;5124387;27;42068;-71
2022/06/20 00:19:47;;;;;;;5.03;3.30;;;;;;;24.76;51.62;98028.63;5090955;28;41712;-72
2022/06/20 00:22:15;;;;;;;3.83;3.33;;;;;;;24.67;51.82;98014.47;5089973;28;42105;-72
2022/06/20 00:24:43;;;;;;;4.30;3.20;;;;;;;24.58;51.89;98015.72;5090785;28;42040;-72
2022/06/20 00:27:11;;;;;;;4.80;3.07;;;;;;;24.60;51.74;98029.84;5091307;28;39848;-71
2022/06/20 00:29:40;;;;;;;4.50;3.47;;;;;;;24.58;51.73;98040.06;5074009;28;41554;-72
2022/06/20 00:32:10;;;;;;;3.70;2.80;;;;;;;24.55;52.09;98032.34;5094498;28;42684;-72
2022/06/20 00:34:39;;;;;;;4.57;3.17;;;;;;;24.52;52.21;98043.59;5094021;28;43245;-72
2022/06/20 00:37:07;;;;;;;5.30;3.37;;;;;;;24.51;51.71;98041.06;5094552;28;39918;-72
2022/06/20 00:39:35;;;;;;;3.27;2.97;;;;;;;24.50;52.08;98040.25;5109651;27;43288;-72
2022/06/20 00:42:03;;;;;;;3.50;3.20;;;;;;;24.50;51.60;98040.25;5093168;28;41831;-72
2022/06/20 00:44:54;;;;;;;5.40;4.00;;;;;;;24.45;52.14;98031.91;5093774;28;43052;-72
2022/06/20 00:47:41;;;;;;;6.23;3.53;;;;;;;24.50;52.43;98029.41;5091249;28;40533;-72
2022/06/20 00:50:32;;;;;;;6.00;3.50;;;;;;;24.49;51.92;98035.03;5122950;27;42592;-72
2022/06/20 00:53:24;;;;;;;5.50;3.37;;;;;;;24.47;52.60;98029.84;5093649;28;43395;-72
2022/06/20 00:56:17;;;;;;;4.10;3.07;;;;;;;24.44;52.49;98030.25;5091651;28;42725;-72
2022/06/20 00:59:13;;;;;;;4.47;2.77;;;;;;;24.42;52.55;98031.47;5092978;28;40748;-72
2022/06/20 01:02:00;;;;;;;4.40;2.97;;;;;;;24.38;52.17;98038.34;5091494;28;43345;-71
2022/06/20 01:04:53;;;;;;;4.67;2.90;;;;;;;24.30;52.61;98040.19;5093826;28;44423;-72
2022/06/20 01:07:47;;;;;;;4.10;3.20;;;;;;;24.23;53.43;98033.91;5122286;27;43096;-71
2022/06/20 01:10:41;;;;;;;6.63;3.53;;;;;;;24.18;53.55;98030.13;5091220;28;41728;-71
2022/06/20 01:13:28;;;;;;;7.90;3.73;;;;;;;24.11;52.93;98030.06;5092138;28;42440;-71
2022/06/20 01:16:25;;;;;;;3.57;2.80;;;;;;;24.05;53.36;98024.66;5091131;28;43566;-71
2022/06/20 01:19:22;;;;;;;3.73;3.03;;;;;;;23.99;53.33;98013.59;5093207;28;43077;-71
2022/06/20 01:22:23;;;;;;;4.37;3.50;;;;;;;23.94;54.49;98007.13;5122208;27;40760;-72
2022/06/20 01:25:28;;;;;;;3.40;3.10;;;;;;;23.84;54.47;98001.28;5094283;28;43316;-72
2022/06/20 01:28:20;;;;;;;4.20;3.60;;;;;;;23.77;54.45;97995.81;5091658;28;43359;-72
2022/06/20 01:31:09;;;;;;;6.03;4.03;;;;;;;23.71;55.24;97985.81;5122274;27;43101;-72
2022/06/20 01:33:57;;;;;;;4.50;3.17;;;;;;;23.65;54.77;97994.72;5092509;28;41500;-71
2022/06/20 01:39:51;;;;;;;3.37;2.90;;;;;;;23.36;54.72;97960.66;5092614;28;44135;-71
2022/06/20 01:42:36;;;;;;;3.13;2.83;;;;;;;23.50;54.40;98002.94;5090657;28;43073;-72
2022/06/20 01:48:32;;;;;;;3.13;2.80;;;;;;;23.40;54.04;98009.69;5091420;28;43091;-71
2022/06/20 01:51:22;;;;;;;3.67;3.30;;;;;;;23.29;54.99;98001.13;5090185;28;43700;-72
2022/06/20 01:54:11;;;;;;;5.37;3.60;;;;;;;23.26;54.60;98009.59;5092400;28;43783;-72
2022/06/20 01:56:57;;;;;;;6.07;3.47;;;;;;;23.24;55.29;98008.97;5090638;28;40722;-72
2022/06/20 01:59:48;;;;;;;5.20;3.50;;;;;;;23.02;56.02;97979.50;5093133;28;42710;-72
2022/06/20 02:02:39;;;;;;;4.37;3.57;;;;;;;23.17;56.17;98013.50;5092159;28;43637;-72
2022/06/20 02:05:29;;;;;;;6.73;3.90;;;;;;;23.15;55.75;98006.63;5089968;28;43091;-72
2022/06/20 02:08:19;;;;;;;4.57;3.17;;;;;;;23.10;56.21;97998.28;5091002;28;42538;-72
2022/06/20 02:11:10;;;;;;;4.70;3.63;;;;;;;23.08;56.50;98003.88;5092348;28;43302;-72
2022/06/20 02:14:01;;;;;;;4.47;3.10;;;;;;;23.08;56.59;98011.97;5091632;28;44483;-71
2022/06/20 02:16:53;;;;;;;5.60;3.20;;;;;;;23.08;56.64;98016.53;5121366;27;42853;-72
2022/06/20 02:19:47;;;;;;;9.80;3.80;;;;;;;23.11;56.63;98016.16;5120961;27;40741;-71
2022/06/20 02:22:36;;;;;;;4.77;3.27;;;;;;;23.11;56.81;98018.84;5090182;28;42483;-71
2022/06/20 02:25:27;;;;;;;4.30;3.13;;;;;;;23.13;57.49;98020.31;5091905;28;43627;-72
2022/06/20 02:28:18;;;;;;;5.67;3.77;;;;;;;23.15;57.57;98012.84;5090651;28;43765;-72
2022/06/20 02:31:07;;;;;;;6.00;3.60;;;;;;;23.10;57.09;98009.91;5089756;28;40508;-71
2022/06/20 02:33:54;;;;;;;6.30;3.83;;;;;;;23.12;57.39;98013.22;5091144;28;43242;-71
2022/06/20 02:36:42;;;;;;;3.60;2.90;;;;;;;23.10;56.81;98015.31;5120882;27;43579;-71
2022/06/20 02:39:29;;;;;;;3.67;3.07;;;;;;;23.05;57.13;98017.75;5091666;28;43071;-71
2022/06/20 02:42:20;;;;;;;5.67;2.87;;;;;;;22.97;57.16;98008.97;5089626;28;40594;-72
2022/06/20 02:45:11;;;;;;;4.57;3.57;;;;;;;22.93;57.40;98030.97;5091978;28;42527;-72
2022/06/20 02:48:04;;;;;;;7.00;3.80;;;;;;;22.90;57.72;98035.91;5091681;28;44214;-71
2022/06/20 02:50:57;;;;;;;3.30;2.87;;;;;;;22.86;57.21;98029.25;5089561;28;42807;-72
2022/06/20 02:53:48;;;;;;;4.50;3.00;;;;;;;22.82;57.08;98017.97;5090835;28;40837;-72
2022/06/20 02:56:40;;;;;;;4.37;3.13;;;;;;;22.81;56.76;98013.59;5089517;28;43060;-72
2022/06/20 02:59:30;;;;;;;3.37;2.90;;;;;;;22.78;56.96;98005.06;5091397;28;43279;-71
2022/06/20 03:02:19;;;;;;;3.33;3.03;;;;;;;22.75;57.19;98021.63;5089282;28;43089;-71
2022/06/20 03:05:07;;;;;;;4.60;3.20;;;;;;;22.70;57.38;98024.91;5092659;28;41728;-72
2022/06/20 03:07:54;;;;;;;4.10;3.27;;;;;;;22.65;57.50;98037.28;5120247;27;42543;-71
2022/06/20 03:10:45;;;;;;;5.53;3.33;;;;;;;22.60;57.96;98032.47;5089013;28;43588;-72
2022/06/20 03:13:32;;;;;;;4.33;2.80;;;;;;;22.55;58.47;98043.84;5090312;28;43491;-71
2022/06/20 03:16:19;;;;;;;6.73;2.83;;;;;;;22.50;58.42;98094.84;5089085;28;41608;-72
2022/06/20 03:19:08;;;;;;;3.83;3.33;;;;;;;22.42;60.07;98097.66;5090921;28;42526;-74
2022/06/20 03:21:58;;;;;;;6.40;4.00;;;;;;;22.35;59.85;98091.34;5120079;27;44424;-74
2022/06/20 03:24:46;;;;;;;5.23;3.97;;;;;;;22.31;60.24;98100.84;5092048;28;43602;-73
2022/06/20 03:27:37;;;;;;;5.63;4.13;;;;;;;22.32;60.24;98097.13;5091418;28;41214;-72
2022/06/20 03:30:29;;;;;;;5.83;3.83;;;;;;;22.34;60.28;98113.13;5088582;28;43311;-72
2022/06/20 03:33:16;;;;;;;6.17;4.40;;;;;;;22.34;59.67;98107.72;5089772;28;43578;-73
2022/06/20 03:36:09;;;;;;;5.87;3.53;;;;;;;22.39;59.92;98121.47;5088748;28;42802;-73
2022/06/20 03:38:56;;;;;;;6.77;3.67;;;;;;;22.42;59.74;98123.78;5090608;28;41484;-76
2022/06/20 03:41:43;;;;;;;5.47;3.60;;;;;;;22.49;59.59;98128.28;5090958;28;42411;-73
2022/06/20 03:44:34;;;;;;;6.07;3.77;;;;;;;22.56;59.32;98117.53;5091321;28;43272;-73
2022/06/20 03:47:25;;;;;;;5.27;3.20;;;;;;;22.66;59.08;98104.56;5120016;27;43466;-74
2022/06/20 03:50:16;;;;;;;7.17;3.70;;;;;;;22.70;58.29;98142.81;5092121;28;40820;-74
2022/06/20 03:53:09;;;;;;;7.30;3.47;;;;;;;22.70;57.05;98156.31;5090410;28;42566;-72
2022/06/20 03:56:00;;;;;;;3.97;2.87;;;;;;;22.70;56.40;98150.94;5088638;28;43597;-74
2022/06/20 03:58:53;;;;;;;3.40;2.70;;;;;;;22.67;55.46;98164.78;5119479;27;43088;-75
2022/06/20 04:01:51;;;;;;;5.80;2.73;;;;;;;22.67;55.87;98175.59;5088467;28;42502;-75
2022/06/20 04:04:42;;;;;;;8.60;2.70;;;;;;;22.64;55.42;98200.25;5092554;28;42441;-74
2022/06/20 04:07:33;;;;;;;2.60;2.40;;;;;;;22.58;54.86;98173.00;5123571;27;44147;-74
2022/06/20 04:13:37;;;;;;;4.60;2.67;;;;;;;22.42;54.48;98200.19;5093349;28;40502;-74
2022/06/20 04:16:30;;;;;;;3.63;2.77;;;;;;;22.36;55.00;98203.66;5091908;28;43311;-74
2022/06/20 04:19:24;;;;;;;3.70;2.23;;;;;;;22.28;54.28;98228.00;5094076;28;44601;-74
2022/06/20 04:22:16;;;;;;;4.73;2.20;;;;;;;22.25;54.01;98252.66;5123210;27;43416;-74
2022/06/20 04:25:06;;;;;;;5.13;2.13;;;;;;;22.21;53.64;98251.34;5095252;28;40805;-75
2022/06/20 04:27:57;;;;;;;2.60;2.00;;;;;;;22.13;53.50;98254.13;5092100;28;43335;-74
2022/06/20 04:30:48;;;;;;;4.40;2.33;;;;;;;21.95;53.93;98232.03;5093960;28;44281;-74
2022/06/20 04:33:41;;;;;;;5.00;2.40;;;;;;;22.08;53.88;98283.50;5093748;28;43806;-75
2022/06/20 04:36:45;;;;;;;4.10;2.07;;;;;;;22.18;53.66;98284.06;5091623;28;41604;-75
2022/06/20 04:39:38;;;;;;;3.57;1.90;;;;;;;22.26;53.70;98283.97;5122586;27;43297;-74
2022/06/20 04:42:40;;;;;;;2.00;1.80;;;;;;;22.30;53.32;98298.78;5122823;27;43177;-74
2022/06/20 04:45:33;;;;;;;4.17;2.00;;;;;;;22.31;53.06;98295.06;5091817;28;42856;-74
2022/06/20 04:48:21;;;;;;;4.87;2.20;;;;;;;22.32;52.84;98285.13;5092220;28;41305;-74
2022/06/20 04:51:10;;;;;;;2.93;2.10;;;;;;;22.34;52.28;98292.03;5122670;27;43593;-74
2022/06/20 04:53:58;;;;;;;4.27;2.40;;;;;;;22.42;52.18;98270.34;5092837;28;43662;-74
2022/06/20 04:56:46;;;;;;;3.73;2.07;;;;;;;22.51;51.91;98263.81;5122341;27;43759;-75
2022/06/20 04:59:33;;;;;;;2.67;1.60;;;;;;;22.61;52.10;98265.41;5093059;28;41467;-75
2022/06/20 05:02:22;;;;;;;3.67;1.90;;;;;;;22.77;51.68;98284.13;5122510;27;43267;-74
2022/06/20 05:05:18;;;;;;;2.23;1.70;;;;;;;22.90;51.65;98268.94;5122489;27;44452;-75
2022/06/20 05:08:10;;;;;;;3.07;2.20;;;;;;;22.92;51.06;98266.06;5091890;28;43097;-74
2022/06/20 05:11:05;;;;;;;3.23;1.80;;;;;;;22.90;50.72;98262.72;5122175;27;40447;-74
2022/06/20 05:13:59;;;;;;;2.77;1.80;;;;;;;22.83;51.01;98251.00;5122165;27;43029;-74
2022/06/20 05:16:50;;;;;;;2.20;2.00;;;;;;;22.82;50.87;98230.44;5090395;28;43659;-74
2022/06/20 05:19:42;;;;;;;3.60;2.10;;;;;;;22.93;51.41;98240.75;5121694;27;43773;-75
2022/06/20 05:22:33;;;;;;;2.53;1.87;;;;;;;23.22;51.13;98246.09;5090795;28;40488;-74
2022/06/20 05:25:22;;;;;;;2.33;1.67;;;;;;;23.49;50.73;98246.38;5091518;28;43161;-74
2022/06/20 05:28:15;;;;;;;2.80;1.70;;;;;;;23.77;50.17;98239.16;5093180;28;44366;-74
2022/06/20 05:31:02;;;;;;;4.20;2.30;;;;;;;24.00;49.65;98245.19;5092306;28;43120;-74
2022/06/20 05:33:54;;;;;;;4.10;1.93;;;;;;;24.26;48.34;98254.56;5090861;28;41576;-74
2022/06/20 05:36:26;;;;;;;3.77;2.20;;;;;;;24.30;48.24;98250.44;5092971;28;41803;-73
2022/06/20 05:39:01;;;;;;;4.67;1.97;;;;;;;24.29;48.65;98246.06;5109236;28;41295;-74
2022/06/20 05:41:29;;;;;;;3.27;2.13;;;;;;;24.21;48.28;98224.53;5093122;28;42950;-74
2022/06/20 05:43:59;;;;;;;2.20;2.00;;;;;;;24.40;48.28;98237.38;5092286;28;39209;-75
2022/06/20 05:46:32;;;;;;;3.97;2.00;;;;;;;24.61;47.93;98225.63;5093400;28;41622;-73
2022/06/20 05:49:04;;;;;;;2.97;2.00;;;;;;;24.88;47.66;98232.84;5092165;28;42318;-74
2022/06/20 05:51:36;;;;;;;2.27;1.87;;;;;;;25.18;47.38;98243.41;5090858;28;42377;-77
2022/06/20 05:54:10;;;;;;;2.30;1.90;;;;;;;25.24;46.88;98256.97;5090534;28;40805;-74
2022/06/20 05:56:43;;;;;;;3.70;2.17;;;;;;;25.21;46.75;98260.13;5091776;28;42515;-74
2022/06/20 05:59:30;;;;;;;3.03;1.90;;;;;;;25.20;47.18;98253.03;5123390;27;42458;-74
2022/06/20 06:02:04;;;;;;;3.00;2.00;;;;;;;25.20;47.13;98242.19;5091815;28;40577;-76
2022/06/20 06:04:37;;;;;;;4.67;2.20;;;;;;;25.21;46.47;98243.84;5090622;28;40718;-75
2022/06/20 06:07:13;;;;;;;4.57;2.33;;;;;;;25.16;46.23;98257.16;5109125;28;40685;-75
2022/06/20 06:09:47;;;;;;;3.30;2.40;;;;;;;25.04;46.57;98258.78;5091734;28;42309;-75
2022/06/20 06:12:21;;;;;;;3.80;2.50;;;;;;;24.90;47.26;98262.44;5092062;28;43435;-74
2022/06/20 06:14:56;;;;;;;3.70;2.00;;;;;;;24.82;47.29;98266.16;5108894;28;38997;-74
2022/06/20 06:17:31;;;;;;;4.13;2.30;;;;;;;24.84;47.69;98271.38;5091778;28;43226;-75
2022/06/20 06:20:01;;;;;;;4.60;2.43;;;;;;;24.86;47.70;98264.72;5091529;28;42905;-75
2022/06/20 06:22:34;;;;;;;4.60;2.27;;;;;;;25.02;47.67;98277.13;5093084;28;43262;-73
2022/06/20 06:25:18;;;;;;;4.93;2.50;;;;;;;25.11;47.20;98275.06;5108592;28;41574;-74
2022/06/20 06:27:49;;;;;;;3.53;2.40;;;;;;;25.39;47.15;98303.75;5088697;28;41714;-75
2022/06/20 06:30:21;;;;;;;3.87;2.33;;;;;;;25.55;47.28;98310.69;5125658;27;42133;-73
2022/06/20 06:32:55;;;;;;;2.63;2.30;;;;;;;25.70;46.85;98318.69;5074400;28;43647;-74
2022/06/20 06:35:28;;;;;;;2.77;1.93;;;;;;;25.83;46.75;98328.72;5108176;28;41711;-73
2022/06/20 06:38:01;;;;;;;3.90;2.10;;;;;;;25.89;46.58;98342.28;5089295;28;41632;-73
2022/06/20 06:40:35;;;;;;;3.50;2.63;;;;;;;26.09;46.99;98339.59;5089891;28;43216;-74
2022/06/20 06:43:11;;;;;;;3.60;2.30;;;;;;;26.20;46.29;98321.88;5121997;27;43475;-74
2022/06/20 06:45:40;;;;;;;3.90;2.30;;;;;;;26.36;46.11;98344.03;5090656;28;40933;-75
2022/06/20 06:48:13;;;;;;;5.00;2.40;;;;;;;26.42;45.91;98335.06;5087076;28;41811;-76
2022/06/20 06:50:44;;;;;;;4.73;2.20;;;;;;;26.50;45.64;98336.72;5072687;28;44541;-78
2022/06/20 06:53:18;;;;;;;5.47;2.33;;;;;;;26.68;46.58;98344.22;5089674;28;43333;-78
2022/06/20 06:55:52;;;;;;;3.10;2.43;;;;;;;26.84;45.32;98349.19;5073880;28;42040;-75
2022/06/20 06:58:25;;;;;;;3.27;2.20;;;;;;;26.93;45.07;98358.84;5086151;28;41728;-76
2022/06/20 07:01:01;;;;;;;3.33;2.13;;;;;;;26.99;44.99;98376.19;5091157;28;43846;-75
2022/06/20 07:03:36;;;;;;;3.53;1.90;;;;;;;26.94;44.71;98392.31;5089216;28;42214;-74
2022/06/20 07:06:13;;;;;;;2.73;1.97;;;;;;;26.84;44.38;98398.94;5074053;28;39388;-79
2022/06/20 07:08:46;;;;;;;3.33;2.00;;;;;;;26.81;45.02;98391.25;5087415;28;41441;-77
2022/06/20 07:11:21;;;;;;;3.00;1.67;;;;;;;26.78;44.26;98409.84;5073848;28;41334;-72
2022/06/20 07:13:55;;;;;;;3.13;1.80;;;;;;;26.64;44.32;98425.31;5088438;28;43109;-72
2022/06/20 07:16:30;;;;;;;4.17;2.00;;;;;;;26.44;44.33;98419.88;5090396;28;39081;-73
2022/06/20 07:18:59;;;;;;;2.90;1.90;;;;;;;26.34;44.70;98405.00;5088357;28;41794;-76
2022/06/20 07:21:30;;;;;;;4.33;2.00;;;;;;;26.29;44.50;98391.22;5091416;28;43566;-74
2022/06/20 07:24:00;;;;;;;1.93;1.70;;;;;;;26.35;44.80;98376.81;5088354;28;42326;-74
2022/06/20 07:26:34;;;;;;;3.40;2.20;;;;;;;26.52;44.39;98366.38;5090718;28;40137;-74
2022/06/20 07:29:07;;;;;;;2.33;2.13;;;;;;;26.73;44.10;98363.44;5089815;28;40764;-72
2022/06/20 07:31:40;;;;;;;2.97;2.20;;;;;;;27.01;43.48;98365.94;5090269;28;43813;-74
2022/06/20 07:34:13;;;;;;;4.97;2.30;;;;;;;27.18;43.17;98378.88;5107866;27;42401;-74
2022/06/20 07:36:45;;;;;;;3.07;2.27;;;;;;;27.23;43.48;98361.88;5071364;28;41870;-73
2022/06/20 07:39:19;;;;;;;2.90;1.80;;;;;;;27.29;43.43;98362.94;5083071;28;42096;-74
2022/06/20 07:41:52;;;;;;;2.83;1.67;;;;;;;27.54;43.17;98356.56;5124239;27;43722;-73
2022/06/20 07:44:24;;;;;;;3.87;1.87;;;;;;;28.13;41.95;98381.78;5072932;28;43174;-74
2022/06/20 07:46:58;;;;;;;2.60;2.10;;;;;;;29.16;40.98;98376.75;5090528;28;39900;-75
2022/06/20 07:49:33;;;;;;;3.60;1.97;;;;;;;30.01;39.86;98402.22;5088314;28;41811;-75
2022/06/20 07:52:08;;;;;;;3.83;2.13;;;;;;;30.19;38.96;98412.25;5072746;28;43890;-72
2022/06/20 07:54:40;;;;;;;2.87;1.90;;;;;;;30.28;37.88;98403.50;5089592;28;41917;-74
2022/06/20 07:57:14;;;;;;;3.97;2.00;;;;;;;30.14;38.29;98385.63;5088431;28;40644;-74
2022/06/20 07:59:46;;;;;;;2.57;1.97;;;;;;;30.44;37.50;98423.00;5089251;28;40808;-74
2022/06/20 08:02:20;;;;;;;5.80;2.30;;;;;;;31.00;36.74;98423.38;5090244;28;42935;-73
2022/06/20 08:04:53;;;;;;;2.50;2.20;;;;;;;31.66;36.11;98411.19;5089178;28;40982;-78
2022/06/20 08:07:25;;;;;;;4.10;2.17;;;;;;;33.04;33.26;98437.34;5090366;28;38876;-78
2022/06/20 08:09:57;;;;;;;4.50;2.43;;;;;;;34.59;31.84;98424.25;5120661;27;41745;-75
2022/06/20 08:12:31;;;;;;;2.57;2.10;;;;;;;35.97;29.20;98458.00;5121217;27;43556;-76
2022/06/20 08:15:02;;;;;;;2.43;1.90;;;;;;;36.86;28.33;98464.28;5089285;28;42541;-73
2022/06/20 08:17:32;;;;;;;5.23;2.47;;;;;;;37.86;27.08;98467.22;5087962;28;40775;-75
2022/06/20 08:20:01;;;;;;;2.53;1.90;;;;;;;38.98;26.02;98476.59;5090308;28;42715;-77
2022/06/20 08:22:35;;;;;;;4.22;2.60;;;;;;;40.18;24.47;98475.63;5090048;28;42361;-80
2022/06/20 08:25:10;;;;;;;2.45;2.00;;;;;;;40.85;23.70;98453.31;5088080;28;42007;-76
2022/06/20 08:27:43;;;;;;;3.30;2.00;;;;;;;41.38;23.03;98462.16;5089646;28;41952;-76
2022/06/20 08:30:14;;;;;;;3.58;2.13;;;;;;;41.64;22.81;98461.69;5089987;28;41799;-76
2022/06/20 08:32:57;;;;;;;2.47;2.13;;;;;;;41.33;22.87;98448.31;5089129;28;41525;-75
2022/06/20 08:35:30;;;;;;;2.70;2.10;;;;;;;40.98;23.18;98455.31;5088914;28;43149;-76
2022/06/20 08:38:05;;;;;;;4.47;2.10;;;;;;;40.81;23.42;98466.97;5087359;28;39943;-75
2022/06/20 08:41:00;;;;;;;1.80;1.70;;;;;;;40.71;23.63;98464.38;5089036;28;41736;-78
2022/06/20 08:43:56;;;;;;;3.63;2.10;;;;;;;40.19;24.16;98455.06;5072280;28;41822;-78
2022/06/20 08:47:17;;;;;;;3.10;1.90;;;;;;;40.56;23.85;98443.19;5089606;28;42758;-77
2022/06/20 08:50:18;;;;;;;3.25;1.88;;;;;;;40.56;23.79;98434.84;5090347;28;40702;-74
2022/06/20 08:53:27;;;;;;;2.40;1.73;;;;;;;39.75;23.88;98446.19;5078526;28;41848;-76
2022/06/20 08:56:17;;;;;;;3.40;1.77;;;;;;;39.12;24.74;98429.66;5069817;28;43810;-76
2022/06/20 08:58:59;;;;;;;2.87;1.90;;;;;;;38.79;24.96;98410.00;5092107;28;43110;-78
2022/06/20 09:01:33;;;;;;;2.93;1.80;;;;;;;38.22;25.56;98409.81;5092897;28;39955;-75
2022/06/20 09:04:16;;;;;;;2.80;1.73;;;;;;;38.03;25.77;98407.69;5092109;28;42430;-78
2022/06/20 09:07:17;;;;;;;2.53;1.80;;;;;;;39.59;24.33;98423.38;5092593;28;41891;-78
2022/06/20 09:10:04;;;;;;;1.95;1.77;;;;;;;40.12;24.08;98424.09;5074797;28;42282;-79
2022/06/20 09:13:07;;;;;;;2.47;1.60;;;;;;;39.28;24.24;98414.56;5091323;28;40723;-79
2022/06/20 09:15:45;;;;;;;2.30;1.47;;;;;;;38.75;25.48;98403.38;5090839;28;41812;-77
2022/06/20 09:18:26;;;;;;;3.00;1.77;;;;;;;38.35;25.49;98398.94;5074638;28;41747;-77
2022/06/20 09:21:00;;;;;;;3.17;1.87;;;;;;;37.78;26.29;98385.72;5092145;28;42307;-76
2022/06/20 09:23:44;;;;;;;1.80;1.50;;;;;;;37.84;26.43;98381.78;5074941;28;40608;-77
2022/06/20 09:26:19;;;;;;;2.67;1.70;;;;;;;38.71;25.15;98407.84;5090614;28;42751;-75
2022/06/20 09:29:06;;;;;;;2.78;1.90;;;;;;;39.56;24.40;98417.59;5091273;28;43007;-75
2022/06/20 09:32:01;;;;;;;3.47;2.00;;;;;;;40.04;24.03;98421.19;5092185;28;42288;-76
2022/06/20 09:35:00;;;;;;;1.73;1.45;;;;;;;40.46;23.55;98425.84;5091663;28;39313;-78
2022/06/20 09:37:46;;;;;;;4.22;1.85;;;;;;;40.03;23.70;98425.91;5090492;28;41498;-77
2022/06/20 09:40:23;;;;;;;1.63;1.25;;;;;;;39.97;23.77;98415.97;5072003;28;42858;-75
2022/06/20 09:43:00;;;;;;;1.40;1.30;;;;;;;39.88;24.04;98417.78;5071644;28;43232;-74
2022/06/20 09:45:39;;;;;;;1.58;1.25;;;;;;;39.49;24.34;98429.84;5090178;28;40970;-73
2022/06/20 09:48:17;;;;;;;2.65;1.42;;;;;;;38.76;25.05;98438.25;5090512;28;42531;-72
2022/06/20 09:50:56;;;;;;;3.43;1.40;;;;;;;37.79;25.31;98459.25;5090059;28;42781;-74
2022/06/20 09:53:35;;;;;;;2.97;1.60;;;;;;;36.70;26.44;98460.72;5090443;28;41059;-74
2022/06/20 09:56:12;;;;;;;4.80;1.50;;;;;;;35.81;27.33;98453.53;5090220;28;39988;-75
2022/06/20 09:58:52;;;;;;;2.83;1.50;;;;;;;35.28;28.68;98444.38;5089448;28;42210;-74
2022/06/20 10:01:29;;;;;;;3.03;1.70;;;;;;;34.89;28.98;98445.69;5089498;28;43738;-73
2022/06/20 10:04:01;;;;;;;4.97;1.57;;;;;;;34.50;29.61;98453.28;5090887;28;42253;-75
2022/06/20 10:06:43;;;;;;;2.93;1.50;;;;;;;34.18;30.65;98447.72;5093168;28;39601;-74
2022/06/20 10:09:20;;;;;;;2.70;1.60;;;;;;;33.88;30.91;98449.00;5090982;28;41819;-76
2022/06/20 10:11:56;;;;;;;2.27;1.33;;;;;;;33.63;31.61;98458.84;5091529;28;41933;-75
2022/06/20 10:14:35;;;;;;;3.33;1.50;;;;;;;33.49;32.18;98461.13;5090308;28;41239;-75
2022/06/20 10:17:15;;;;;;;3.00;1.47;;;;;;;33.43;31.80;98454.72;5089213;28;42423;-74
2022/06/20 10:19:50;;;;;;;2.17;1.83;;;;;;;33.59;32.13;98469.50;5091720;28;41703;-79
2022/06/20 10:22:24;;;;;;;3.40;1.80;;;;;;;33.65;31.66;98479.44;5074901;28;41797;-75
2022/06/20 10:25:16;;;;;;;4.23;2.00;;;;;;;33.58;31.73;98472.47;5092282;28;43054;-76
2022/06/20 10:27:54;;;;;;;2.57;2.20;;;;;;;33.24;32.76;98480.78;5092184;28;40655;-75
2022/06/20 10:30:37;;;;;;;1.77;1.40;;;;;;;32.61;33.23;98489.25;5088306;28;42387;-75
2022/06/20 10:33:23;;;;;;;3.93;2.07;;;;;;;31.91;34.83;98494.97;5089257;28;43839;-76
2022/06/20 10:35:59;;;;;;;3.43;1.80;;;;;;;31.17;35.97;98511.03;5088379;28;43282;-77
2022/06/20 10:38:38;;;;;;;3.43;2.07;;;;;;;30.67;36.48;98511.41;5090689;28;40212;-74
2022/06/20 10:41:10;;;;;;;3.17;1.80;;;;;;;30.40;37.00;98520.19;5107501;28;41935;-73
2022/06/20 10:43:47;;;;;;;3.20;1.60;;;;;;;30.09;37.49;98505.66;5090466;28;42824;-74
2022/06/20 10:46:27;;;;;;;3.83;1.70;;;;;;;29.58;37.90;98506.84;5091150;28;43170;-75
2022/06/20 10:49:15;;;;;;;3.17;1.43;;;;;;;29.10;38.81;98519.47;5090143;28;39998;-73
2022/06/20 10:51:54;;;;;;;2.20;1.70;;;;;;;28.74;39.39;98537.31;5088495;28;42486;-74
2022/06/20 10:54:33;;;;;;;2.77;1.57;;;;;;;28.27;40.44;98529.63;5072914;28;41816;-73
2022/06/20 10:57:12;;;;;;;1.70;1.60;;;;;;;27.83;40.90;98517.63;5088745;28;42997;-74
2022/06/20 10:59:53;;;;;;;2.77;1.50;;;;;;;27.47;42.04;98507.22;5090941;28;20219;-74
2022/06/20 11:02:37;;;;;;;2.83;1.60;;;;;;;27.29;42.44;98510.59;5087506;28;42517;-72
2022/06/20 11:05:16;;;;;;;3.73;1.43;;;;;;;27.16;43.51;98516.06;5073193;28;44171;-73
2022/06/20 11:07:55;;;;;;;3.53;1.53;;;;;;;27.04;43.41;98521.28;5089537;28;43587;-74
2022/06/20 11:10:37;;;;;;;3.00;2.07;;;;;;;26.90;44.19;98529.59;5088687;28;40878;-74
2022/06/20 11:13:14;;;;;;;2.30;1.70;;;;;;;26.77;43.84;98544.00;5101887;28;42629;-74
2022/06/20 11:15:50;;;;;;;2.77;1.70;;;;;;;26.62;44.32;98551.50;5070044;28;41909;-73
2022/06/20 11:18:44;;;;;;;2.30;1.60;;;;;;;26.46;44.56;98552.69;5074374;28;42215;-73
2022/06/20 11:21:20;;;;;;;2.73;1.80;;;;;;;26.38;45.10;98547.47;5073299;28;39993;-73
2022/06/20 11:24:01;;;;;;;2.17;1.80;;;;;;;26.33;45.29;98555.41;5088129;28;41896;-73
2022/06/20 11:26:40;;;;;;;2.33;1.73;;;;;;;26.17;45.74;98553.00;5087233;28;43850;-75
2022/06/20 11:29:32;;;;;;;2.83;2.10;;;;;;;26.01;45.62;98563.16;5088101;28;42395;-73
2022/06/20 11:32:08;;;;;;;2.27;1.60;;;;;;;25.82;46.33;98555.78;5088973;28;39919;-78
2022/06/20 11:34:57;;;;;;;3.40;1.90;;;;;;;25.71;46.88;98559.88;5072999;28;43418;-82
2022/06/20 11:37:40;;;;;;;1.90;1.60;;;;;;;25.74;46.80;98547.78;5083155;28;43502;-78
2022/06/20 11:40:33;;;;;;;3.10;1.97;;;;;;;25.94;46.64;98551.44;5084926;28;42021;-79
2022/06/20 11:43:26;;;;;;;2.50;1.63;;;;;;;26.27;46.16;98545.31;5068431;28;39349;-82
2022/06/20 11:46:05;;;;;;;3.93;1.77;;;;;;;26.47;45.68;98548.94;5083717;28;42209;-76
2022/06/20 11:48:50;;;;;;;3.50;1.80;;;;;;;26.84;44.87;98556.56;5085317;28;43692;-79
2022/06/20 11:51:27;;;;;;;3.43;1.73;;;;;;;27.30;43.93;98555.78;5084996;28;41959;-85
2022/06/20 11:54:08;;;;;;;1.70;1.60;;;;;;;27.77;43.49;98543.81;5085546;28;42260;-78
2022/06/20 11:56:49;;;;;;;1.67;1.57;;;;;;;28.31;42.22;98569.00;5085898;28;41878;-83
2022/06/20 11:59:28;;;;;;;1.83;1.50;;;;;;;28.71;41.42;98562.28;5086446;28;42692;-79
2022/06/20 12:02:01;;;;;;;1.57;1.40;;;;;;;29.20;40.83;98579.78;5083533;28;43472;-75
2022/06/20 12:04:37;;;;;;;1.37;1.27;;;;;;;29.93;39.15;98585.44;5088105;28;40166;-76
2022/06/20 12:07:15;;;;;;;1.40;1.17;;;;;;;30.38;38.05;98604.31;5069879;28;40739;-79
2022/06/20 12:09:48;;;;;;;2.10;1.20;;;;;;;30.31;38.50;98599.72;5089091;28;43691;-77
2022/06/20 12:12:33;;;;;;;1.60;1.50;;;;;;;30.12;38.62;98600.81;5085582;28;42026;-77
2022/06/20 12:15:26;;;;;;;1.10;1.10;;;;;;;29.94;38.57;98614.41;5087728;28;40184;-79
2022/06/20 12:18:08;;;;;;;1.20;1.10;;;;;;;29.86;39.39;98628.38;5085597;28;41785;-76
2022/06/20 12:23:31;;;;;;;0.83;0.83;;;;;;;30.65;38.23;98643.94;5085285;28;42098;-78
2022/06/20 12:26:02;;;;;;;1.63;1.20;;;;;;;30.69;37.42;98651.44;5087746;28;40081;-79
2022/06/20 12:28:33;;;;;;;1.27;1.17;;;;;;;31.32;37.31;98636.47;5073817;28;40476;-78
2022/06/20 12:31:12;;;;;;;1.13;1.03;;;;;;;32.98;34.98;98660.59;5089974;28;42817;-78
2022/06/20 12:33:42;;;;;;;3.90;1.70;;;;;;;32.43;34.73;98669.31;5090834;28;43026;-78
2022/06/20 12:36:20;;;;;;;2.00;1.23;;;;;;;31.83;35.40;98676.94;5092588;28;40712;-81
2022/06/20 12:38:56;;;;;;;1.27;1.20;;;;;;;31.13;36.74;98678.66;5091110;28;42744;-80
2022/06/20 12:41:26;;;;;;;1.50;1.40;;;;;;;30.54;37.12;98672.06;5086862;28;43494;-77
2022/06/20 12:44:10;;;;;;;1.43;1.00;;;;;;;29.98;38.00;98671.13;5088787;28;42871;-76
2022/06/20 12:46:50;;;;;;;1.40;1.30;;;;;;;29.49;39.09;98677.41;5088256;28;40183;-81
2022/06/20 12:49:29;;;;;;;1.67;1.00;;;;;;;28.95;40.05;98667.00;5073961;28;40882;-78
2022/06/20 12:52:02;;;;;;;1.30;1.20;;;;;;;28.53;40.41;98676.63;5086509;28;43006;-75
2022/06/20 12:54:52;;;;;;;1.57;1.10;;;;;;;27.93;40.86;98675.91;5075459;28;42957;-77
2022/06/20 12:57:46;;;;;;;1.50;1.13;;;;;;;27.19;41.91;98678.78;5092912;28;40727;-76